Time;durP1;ratioP1;P1;durP2;ratioP2;P2;SDS_P1;SDS_P2;PMS_P1;PMS_P2;Temp;Humidity;BMP_temperature;BMP_pressure;BME280_temperature;BME280_humidity;BME280_pressure;Samples;Min_cycle;Max_cycle;Signal;HPM_P1;HPM_P2
2022/11/08 08:20:42;;;;;;;53.92;49.08;;;;;;;14.95;100.00;101720.44;5817905;24;20141;-92
2022/11/08 08:24:16;;;;;;;53.15;49.05;;;;;;;14.80;100.00;101726.06;5895692;24;20036;-90
2022/11/08 08:31:12;;;;;;;55.08;50.70;;;;;;;14.56;100.00;101731.03;5913171;24;20032;-92
2022/11/08 08:53:21;;;;;;;48.45;44.45;;;;;;;15.30;100.00;101728.97;6036992;23;20023;-91
2022/11/08 09:02:34;;;;;;;48.47;44.58;;;;;;;15.03;100.00;101723.72;6009400;23;20095;-92
2022/11/08 09:08:58;;;;;;;50.45;46.58;;;;;;;16.64;100.00;101725.19;6034182;23;20110;-90
2022/11/08 09:12:20;;;;;;;49.03;45.28;;;;;;;16.28;100.00;101728.63;6051696;23;20398;-91
2022/11/08 09:21:28;;;;;;;48.50;45.13;;;;;;;19.71;100.00;101721.13;6120268;23;20035;-89
2022/11/08 09:23:58;;;;;;;49.70;46.13;;;;;;;19.57;100.00;101726.75;6245467;23;20456;-89
2022/11/08 09:26:27;;;;;;;47.53;44.38;;;;;;;18.38;100.00;101727.22;6246539;23;20083;-90
2022/11/08 09:29:18;;;;;;;48.28;44.78;;;;;;;16.91;100.00;101719.53;6246649;23;20373;-90
2022/11/08 09:35:53;;;;;;;50.38;46.63;;;;;;;18.17;100.00;101715.16;6245890;23;20031;-91
2022/11/08 09:38:29;;;;;;;49.45;46.15;;;;;;;17.60;100.00;101718.25;6245801;23;20126;-91
2022/11/08 09:41:27;;;;;;;47.30;44.15;;;;;;;16.35;100.00;101712.47;6245118;23;20023;-91
2022/11/08 09:47:50;;;;;;;46.95;43.33;;;;;;;18.59;100.00;101703.47;6116694;23;20110;-88
2022/11/08 09:53:58;;;;;;;48.85;44.83;;;;;;;18.34;100.00;101706.41;6023163;23;20026;-91
2022/11/08 09:56:30;;;;;;;47.33;43.95;;;;;;;18.54;100.00;101702.28;6123930;23;20022;-89
2022/11/08 09:59:00;;;;;;;46.67;43.57;;;;;;;19.05;100.00;101691.81;6175422;23;20024;-89
2022/11/08 10:01:37;;;;;;;49.70;45.80;;;;;;;18.82;100.00;101690.03;6215337;23;20051;-88
2022/11/08 10:04:23;;;;;;;47.08;43.88;;;;;;;18.23;100.00;101697.28;6215470;23;20062;-89
2022/11/08 10:07:09;;;;;;;47.88;44.55;;;;;;;17.73;100.00;101697.63;6214603;23;20036;-90
2022/11/08 10:10:11;;;;;;;47.05;43.35;;;;;;;17.39;100.00;101694.59;6210984;23;20031;-90
2022/11/08 10:13:05;;;;;;;48.22;44.60;;;;;;;17.85;100.00;101696.66;6214648;23;20023;-90
2022/11/08 10:15:59;;;;;;;47.13;43.67;;;;;;;17.96;100.00;101686.97;6215144;23;20047;-93
2022/11/08 10:19:35;;;;;;;49.50;45.88;;;;;;;17.24;100.00;101686.94;6214567;23;20093;-93
2022/11/08 10:22:06;;;;;;;51.20;47.47;;;;;;;17.13;100.00;101685.03;6213812;23;20021;-91
2022/11/08 10:24:47;;;;;;;46.75;43.40;;;;;;;17.34;100.00;101687.22;6214589;23;20027;-91
2022/11/08 10:27:32;;;;;;;49.53;45.97;;;;;;;16.48;100.00;101680.16;6214821;23;20032;-90
2022/11/08 10:33:48;;;;;;;62.25;46.58;;;;;;;16.69;100.00;101686.94;6176896;23;20035;-88
2022/11/08 10:36:22;;;;;;;49.47;45.88;;;;;;;16.63;100.00;101685.97;6214942;23;20017;-92
2022/11/08 10:39:01;;;;;;;46.72;43.17;;;;;;;16.74;100.00;101688.97;6214982;23;20033;-88
2022/11/08 10:44:24;;;;;;;49.20;45.50;;;;;;;16.92;100.00;101675.59;6231399;22;20028;-90
2022/11/08 10:50:42;;;;;;;51.38;47.28;;;;;;;16.57;100.00;101670.78;6246234;23;20508;-93
2022/11/08 10:53:16;;;;;;;49.42;45.55;;;;;;;15.95;100.00;101670.75;6244995;23;20457;-91
2022/11/08 10:55:52;;;;;;;51.00;46.90;;;;;;;16.27;100.00;101668.78;6248288;23;20083;-91
2022/11/08 10:58:50;;;;;;;49.22;45.20;;;;;;;16.06;100.00;101669.19;6247030;23;20024;-89
2022/11/08 11:08:27;;;;;;;48.55;44.53;;;;;;;16.07;100.00;101665.50;6096843;23;20037;-91
2022/11/08 11:14:45;;;;;;;48.10;44.55;;;;;;;16.54;100.00;101659.69;6009942;23;20030;-90
2022/11/08 11:24:08;;;;;;;51.15;47.10;;;;;;;16.03;100.00;101656.22;6096807;23;20089;-91
2022/11/08 11:50:49;;;;;;;;;;;;;;;;;;;;;
2022/11/08 11:53:49;;;;;;;49.60;45.70;;;;;;;16.87;100.00;101660.16;6244598;23;20392;-89
2022/11/08 11:56:48;;;;;;;50.45;46.38;;;;;;;16.18;100.00;101648.69;6246006;23;20102;-93
2022/11/08 11:59:58;;;;;;;49.00;44.97;;;;;;;16.49;100.00;101641.59;6246739;23;20103;-91
2022/11/08 12:06:29;;;;;;;48.73;44.87;;;;;;;17.12;100.00;101646.63;6153688;23;20017;-91
2022/11/08 12:15:55;;;;;;;49.05;45.45;;;;;;;17.38;100.00;101640.06;6242511;23;20030;-92
2022/11/08 12:18:37;;;;;;;49.97;45.75;;;;;;;17.79;100.00;101635.78;6237160;23;20035;-92
2022/11/08 12:24:45;;;;;;;52.22;47.80;;;;;;;20.85;100.00;101633.50;6243757;23;19942;-92
2022/11/08 12:27:25;;;;;;;48.65;45.13;;;;;;;19.34;100.00;101641.50;6245244;23;20102;-92
2022/11/08 12:33:34;;;;;;;51.78;47.88;;;;;;;19.97;100.00;101636.91;6170956;23;20090;-90
2022/11/08 12:36:14;;;;;;;49.35;45.47;;;;;;;20.69;98.61;101630.63;6245971;23;20027;-90
2022/11/08 12:38:53;;;;;;;50.80;47.05;;;;;;;20.63;96.56;101631.63;6245209;23;20396;-92
2022/11/08 12:41:35;;;;;;;49.15;45.10;;;;;;;20.06;100.00;101638.13;6245121;23;20020;-91
2022/11/08 12:44:34;;;;;;;;;;;;;;;19.36;100.00;101633.97;6239387;23;20043;-89
2022/11/08 12:47:41;;;;;;;50.67;46.88;;;;;;;19.42;100.00;101626.78;6094810;23;19928;-91
2022/11/08 12:50:40;;;;;;;50.75;46.95;;;;;;;20.51;100.00;101622.81;6182806;23;20096;-91
2022/11/08 13:00:23;;;;;;;52.80;48.60;;;;;;;19.07;100.00;101635.88;5994134;23;20027;-91
2022/11/08 13:03:05;;;;;;;52.38;48.22;;;;;;;18.40;100.00;101633.69;6112263;23;20033;-91
2022/11/08 13:16:11;;;;;;;47.05;43.55;;;;;;;20.25;100.00;101627.88;6084866;23;20026;-92
2022/11/08 13:28:46;;;;;;;48.70;44.80;;;;;;;19.11;100.00;101630.81;5816678;24;20031;-88
2022/11/08 13:35:38;;;;;;;48.85;45.17;;;;;;;18.62;100.00;101639.25;5921149;24;20103;-88
2022/11/08 14:02:44;;;;;;;48.00;44.53;;;;;;;17.99;100.00;101632.75;5909259;24;20039;-90
2022/11/08 14:05:28;;;;;;;49.67;45.70;;;;;;;17.36;100.00;101636.78;6031550;23;20082;-91
2022/11/08 14:08:28;;;;;;;48.85;44.95;;;;;;;16.76;100.00;101630.56;6200142;23;20019;-91
2022/11/08 14:14:56;;;;;;;48.10;44.55;;;;;;;16.57;100.00;101630.56;6122562;23;20058;-91
2022/11/08 14:24:28;;;;;;;50.58;45.60;;;;;;;15.73;100.00;101631.94;5909654;23;20035;-87
2022/11/08 14:27:35;;;;;;;49.55;44.75;;;;;;;15.32;100.00;101631.38;6007834;23;20072;-91
2022/11/08 14:33:29;;;;;;;48.58;44.40;;;;;;;14.87;100.00;101636.75;5979604;23;20098;-88
2022/11/08 14:36:58;;;;;;;49.08;44.78;;;;;;;14.61;100.00;101636.84;6009050;23;20030;-92
2022/11/08 16:02:01;;;;;;;63.03;53.22;;;;;;;10.50;100.00;101689.22;6124045;23;20067;-91
2022/11/08 16:08:22;;;;;;;120.63;74.63;;;;;;;10.13;100.00;101690.00;6151779;23;20035;-93
2022/11/08 16:15:15;;;;;;;211.77;107.05;;;;;;;10.15;100.00;101696.78;6094635;23;20022;-90
2022/11/08 16:18:33;;;;;;;244.23;122.70;;;;;;;9.95;100.00;101696.44;6048686;23;20396;-92
2022/11/08 16:45:49;;;;;;;;;;;;;;;;;;;;;
2022/11/08 16:59:04;;;;;;;;;;;;;;;8.87;100.00;101731.66;5791399;24;20071;-91
2022/11/08 17:02:22;;;;;;;;;;;;;;;;;;;;;
2022/11/08 17:12:25;;;;;;;90.85;67.93;;;;;;;8.40;100.00;101726.28;5925508;24;20060;-92
2022/11/08 17:15:08;;;;;;;90.93;66.95;;;;;;;8.86;100.00;101743.25;5968772;23;20342;-88
2022/11/08 17:18:15;;;;;;;83.80;68.03;;;;;;;8.82;100.00;101736.63;6051217;23;20042;-89
2022/11/08 17:28:16;;;;;;;61.42;54.97;;;;;;;9.06;100.00;101735.75;6138167;23;20036;-91
2022/11/08 17:37:43;;;;;;;61.47;54.20;;;;;;;8.98;100.00;101750.84;6129691;23;20068;-92
2022/11/08 17:40:50;;;;;;;62.22;54.78;;;;;;;8.87;100.00;101742.25;6154409;23;20068;-90
2022/11/08 17:53:08;;;;;;;69.17;58.20;;;;;;;8.56;100.00;101728.06;6202584;23;20381;-88
2022/11/08 17:55:53;;;;;;;64.05;55.80;;;;;;;8.32;100.00;101724.44;6213483;23;20268;-89
2022/11/08 17:58:34;;;;;;;70.28;57.47;;;;;;;8.20;100.00;101734.53;6215815;23;20020;-92
2022/11/08 18:01:09;;;;;;;78.95;61.83;;;;;;;8.18;100.00;101725.09;6215718;23;20017;-92
2022/11/08 18:03:53;;;;;;;74.43;63.88;;;;;;;8.35;100.00;101723.25;6214974;23;20071;-91
2022/11/08 18:13:23;;;;;;;86.38;66.10;;;;;;;8.24;100.00;101727.09;6212546;23;20060;-89
2022/11/08 18:16:33;;;;;;;94.00;68.45;;;;;;;8.10;100.00;101725.09;6215854;23;20021;-91
2022/11/08 18:19:44;;;;;;;95.68;71.20;;;;;;;8.10;100.00;101735.69;6200781;23;20075;-90
2022/11/08 18:23:15;;;;;;;91.50;70.72;;;;;;;8.26;100.00;101733.88;6216956;23;20039;-91
2022/11/08 18:26:20;;;;;;;101.97;73.05;;;;;;;8.21;100.00;101730.06;6215860;23;20016;-90
2022/11/08 18:29:39;;;;;;;108.38;75.68;;;;;;;8.26;100.00;101733.88;6216867;23;20362;-92
2022/11/08 18:32:20;;;;;;;103.57;75.45;;;;;;;8.07;100.00;101736.00;6215734;23;20394;-92
2022/11/08 18:35:20;;;;;;;101.85;74.47;;;;;;;7.96;100.00;101739.81;6216054;23;20692;-91
2022/11/08 18:38:16;;;;;;;97.97;70.50;;;;;;;7.84;100.00;101738.44;6215966;23;20083;-93
2022/11/08 18:41:14;;;;;;;96.45;68.38;;;;;;;7.71;100.00;101738.94;6216807;23;20017;-92
2022/11/08 18:47:28;;;;;;;92.68;67.45;;;;;;;7.53;100.00;101731.13;6184649;23;20033;-90
2022/11/08 18:50:28;;;;;;;;;;;;;;;;;;;;;
2022/11/08 18:53:09;;;;;;;79.22;60.95;;;;;;;7.47;100.00;101737.88;6156096;23;20091;-89
2022/11/08 18:56:23;;;;;;;84.03;63.80;;;;;;;7.89;100.00;101744.91;6185875;23;20101;-91
2022/11/08 18:59:44;;;;;;;;;;;;;;;;;;;;;
2022/11/08 19:03:03;;;;;;;77.47;56.85;;;;;;;7.40;100.00;101750.09;6169504;23;19987;-90
2022/11/08 19:06:12;;;;;;;73.50;58.00;;;;;;;7.25;100.00;101744.56;6185988;23;20024;-91
2022/11/08 19:09:30;;;;;;;79.43;59.55;;;;;;;7.43;100.00;101748.94;6184873;23;20454;-92
2022/11/08 19:12:36;;;;;;;69.18;55.83;;;;;;;7.34;100.00;101753.38;6123530;23;20018;-91
2022/11/08 19:15:12;;;;;;;70.95;56.67;;;;;;;7.31;100.00;101748.41;6125171;23;20013;-90
2022/11/08 19:17:56;;;;;;;73.32;59.28;;;;;;;7.51;100.00;101744.50;6127143;23;20352;-91
2022/11/08 19:20:58;;;;;;;147.38;104.63;;;;;;;7.44;100.00;101754.06;6127450;23;20431;-94
2022/11/08 19:23:38;;;;;;;124.35;90.63;;;;;;;7.41;100.00;101757.00;6187928;23;20029;-91
2022/11/08 19:26:21;;;;;;;110.45;82.10;;;;;;;6.83;100.00;101761.19;6187178;23;20041;-92
2022/11/08 19:29:18;;;;;;;112.22;84.47;;;;;;;7.18;100.00;101759.41;6179860;23;20446;-90
2022/11/08 19:32:30;;;;;;;105.40;81.30;;;;;;;7.19;100.00;101768.16;6180373;23;20033;-92
2022/11/08 19:35:18;;;;;;;115.70;80.55;;;;;;;7.28;100.00;101762.75;6180131;23;20190;-88
2022/11/08 19:38:07;;;;;;;103.65;75.40;;;;;;;7.27;100.00;101753.19;6184241;23;20343;-89
2022/11/08 19:40:40;;;;;;;105.20;75.05;;;;;;;6.89;100.00;101770.31;6184985;23;20085;-90
2022/11/08 19:43:22;;;;;;;104.38;71.85;;;;;;;6.89;100.00;101765.84;6177534;23;20032;-91
2022/11/08 19:45:57;;;;;;;94.85;69.97;;;;;;;6.81;100.00;101768.47;6206488;23;20055;-93
2022/11/08 19:48:49;;;;;;;94.90;66.60;;;;;;;6.73;100.00;101767.56;6215684;23;20024;-90
2022/11/08 19:51:48;;;;;;;80.72;61.05;;;;;;;6.65;100.00;101771.78;6207483;23;20075;-90
2022/11/08 19:54:25;;;;;;;69.80;55.50;;;;;;;6.22;100.00;101763.88;6191599;23;20044;-94
2022/11/08 19:56:54;;;;;;;78.15;64.38;;;;;;;6.61;100.00;101772.28;6214054;23;20024;-92
2022/11/08 19:59:44;;;;;;;80.78;60.30;;;;;;;6.65;100.00;101782.34;6213453;23;20025;-93
2022/11/08 20:02:23;;;;;;;79.97;59.22;;;;;;;6.71;100.00;101783.56;6214469;23;20032;-89
2022/11/08 20:05:00;;;;;;;75.47;61.20;;;;;;;6.74;100.00;101790.34;6214258;23;20021;-88
2022/11/08 20:07:48;;;;;;;77.32;60.20;;;;;;;6.68;100.00;101786.50;6214543;23;20063;-93
2022/11/08 20:10:40;;;;;;;69.45;56.80;;;;;;;6.82;100.00;101788.59;6214537;23;20017;-88
2022/11/08 20:13:18;;;;;;;75.65;57.08;;;;;;;6.35;100.00;101783.59;6214601;23;20021;-91
2022/11/08 20:15:54;;;;;;;72.68;58.65;;;;;;;6.42;100.00;101786.50;6214386;23;20048;-91
2022/11/08 20:18:28;;;;;;;67.30;57.15;;;;;;;6.43;100.00;101790.78;6214588;23;20082;-89
2022/11/08 20:21:16;;;;;;;71.32;57.53;;;;;;;6.34;100.00;101789.06;6214294;23;20099;-91
2022/11/08 20:24:04;;;;;;;79.22;59.72;;;;;;;6.50;100.00;101788.34;6210075;23;20086;-90
2022/11/08 20:26:40;;;;;;;71.15;54.20;;;;;;;6.01;100.00;101801.94;6210213;23;20017;-91
2022/11/08 20:32:03;;;;;;;67.70;58.15;;;;;;;6.55;100.00;101805.41;6210027;23;20020;-90
2022/11/08 20:35:06;;;;;;;75.70;55.58;;;;;;;6.45;100.00;101803.84;6210107;23;20021;-92
2022/11/08 20:37:33;;;;;;;71.90;59.28;;;;;;;6.26;100.00;101810.06;6208257;23;20036;-93
2022/11/08 20:40:17;;;;;;;66.15;54.67;;;;;;;6.39;100.00;101798.19;6210430;23;20112;-93
2022/11/08 20:42:44;;;;;;;87.43;64.93;;;;;;;6.19;100.00;101805.41;6209312;23;20346;-91
2022/11/08 20:45:14;;;;;;;209.95;97.05;;;;;;;6.30;100.00;101790.34;6208960;23;20031;-90
2022/11/08 20:47:57;;;;;;;177.18;89.35;;;;;;;6.23;100.00;101803.28;6209564;23;20020;-92
2022/11/08 20:50:40;;;;;;;;;;;;;;;;;;;;;
2022/11/08 20:53:12;;;;;;;196.82;95.15;;;;;;;6.22;100.00;101808.72;6210097;23;20021;-93
2022/11/08 20:55:40;;;;;;;177.07;86.80;;;;;;;5.62;100.00;101799.50;6210094;23;20108;-91
2022/11/08 20:58:18;;;;;;;209.73;95.53;;;;;;;5.79;100.00;101807.59;6209607;23;20683;-88
2022/11/08 21:00:53;;;;;;;186.40;95.60;;;;;;;6.01;100.00;101811.66;6209604;23;20043;-91
2022/11/08 21:03:27;;;;;;;166.13;89.20;;;;;;;5.94;100.00;101820.16;6214487;23;20017;-88
2022/11/08 21:06:28;;;;;;;167.15;86.43;;;;;;;6.05;100.00;101810.38;6216393;23;20016;-92
2022/11/08 21:09:01;;;;;;;142.13;82.68;;;;;;;5.95;100.00;101813.06;6208081;23;20025;-92
2022/11/08 21:11:44;;;;;;;129.50;76.88;;;;;;;5.70;100.00;101815.41;6215550;23;20024;-88
2022/11/08 21:14:22;;;;;;;120.05;69.35;;;;;;;5.68;100.00;101809.44;6215199;23;20446;-88
2022/11/08 21:17:03;;;;;;;114.22;71.00;;;;;;;5.55;100.00;101818.69;6215487;23;20024;-89
2022/11/08 21:19:50;;;;;;;107.75;70.55;;;;;;;5.76;100.00;101814.00;6216296;23;20020;-88
2022/11/08 21:22:18;;;;;;;113.03;71.85;;;;;;;5.83;100.00;101812.41;6215444;23;20091;-91
2022/11/08 21:24:50;;;;;;;101.80;69.00;;;;;;;5.87;100.00;101805.03;6215418;23;20020;-89
2022/11/08 21:27:18;;;;;;;96.25;65.28;;;;;;;5.44;100.00;101809.97;6215524;23;20099;-89
2022/11/08 21:29:45;;;;;;;101.40;69.35;;;;;;;5.14;100.00;101807.59;6216030;23;20452;-92
2022/11/08 21:32:19;;;;;;;99.07;66.93;;;;;;;5.57;100.00;101806.19;6215898;23;20024;-90
2022/11/08 21:35:20;;;;;;;103.60;62.85;;;;;;;5.14;100.00;101821.59;6215486;23;20031;-89
2022/11/08 21:38:02;;;;;;;96.25;65.82;;;;;;;5.40;100.00;101813.88;6206665;23;20063;-92
2022/11/08 21:40:29;;;;;;;102.13;64.35;;;;;;;5.38;100.00;101817.63;6215526;23;20020;-92
2022/11/08 21:43:01;;;;;;;90.78;64.18;;;;;;;5.57;100.00;101827.25;6215446;23;20096;-91
2022/11/08 21:45:28;;;;;;;92.40;58.90;;;;;;;5.07;100.00;101820.53;6215136;23;20485;-90
2022/11/08 21:47:58;;;;;;;85.95;60.83;;;;;;;5.42;100.00;101816.41;6215778;23;20031;-89
2022/11/08 21:50:25;;;;;;;92.85;64.70;;;;;;;5.13;100.00;101816.50;6215681;23;20405;-89
2022/11/08 21:52:56;;;;;;;90.47;62.40;;;;;;;5.32;100.00;101819.03;6215186;23;20044;-94
2022/11/08 22:05:05;;;;;;;80.07;58.97;;;;;;;5.41;100.00;101818.16;6090074;23;20018;-93
2022/11/08 22:07:37;;;;;;;78.90;59.13;;;;;;;5.41;100.00;101825.25;6205172;23;20030;-93
2022/11/08 22:10:10;;;;;;;81.60;57.30;;;;;;;4.74;100.00;101821.84;6214872;23;20086;-93
2022/11/08 22:12:53;;;;;;;82.72;61.42;;;;;;;5.09;100.00;101823.84;6214750;23;20043;-90
2022/11/08 22:15:29;;;;;;;;;;;;;;;5.00;100.00;101819.44;6215064;23;20078;-91
2022/11/08 22:17:57;;;;;;;83.00;59.00;;;;;;;4.83;100.00;101816.53;6215051;23;19943;-93
2022/11/08 22:21:36;;;;;;;74.68;57.97;;;;;;;4.65;100.00;101826.13;6213944;23;20016;-91
2022/11/08 22:23:47;;;;;;;70.05;52.33;;;;;;;4.87;100.00;101824.16;6214113;23;20449;-89
2022/11/08 22:32:48;;;;;;;65.53;51.42;;;;;;;4.75;100.00;101821.72;6183061;23;20350;-91
2022/11/08 22:35:45;;;;;;;61.90;51.42;;;;;;;4.76;100.00;101820.72;6215628;23;20024;-90
2022/11/08 22:38:27;;;;;;;66.70;49.50;;;;;;;4.51;100.00;101829.22;6214097;23;20099;-90
2022/11/08 22:44:09;;;;;;;65.90;51.15;;;;;;;4.95;100.00;101824.28;6198888;23;20117;-92
2022/11/08 22:47:01;;;;;;;60.55;50.83;;;;;;;5.00;100.00;101819.44;6213434;23;20021;-91
2022/11/08 22:49:47;;;;;;;59.30;51.00;;;;;;;4.98;100.00;101822.19;6215380;23;20024;-92
2022/11/08 22:52:37;;;;;;;64.40;52.63;;;;;;;4.90;100.00;101815.97;6217025;23;20027;-94
2022/11/08 22:55:22;;;;;;;67.22;55.70;;;;;;;5.00;100.00;101820.25;6216460;23;20342;-93
2022/11/08 22:57:59;;;;;;;70.65;53.47;;;;;;;4.95;100.00;101827.75;6214051;23;20558;-93
2022/11/08 23:00:30;;;;;;;61.20;54.55;;;;;;;4.90;100.00;101823.88;6216867;23;20039;-93
2022/11/08 23:07:24;;;;;;;59.13;50.20;;;;;;;4.30;100.00;101822.28;6144970;23;20056;-91
2022/11/08 23:10:05;;;;;;;64.80;51.50;;;;;;;4.63;100.00;101819.34;6216623;23;20012;-94
2022/11/08 23:25:26;;;;;;;53.78;47.42;;;;;;;4.36;100.00;101820.91;6216872;23;20039;-90
2022/11/08 23:33:44;;;;;;;55.28;49.35;;;;;;;4.37;100.00;101822.56;6217539;23;20453;-91
2022/11/08 23:36:13;;;;;;;54.92;48.05;;;;;;;3.89;100.00;101831.19;6216204;23;20020;-90
2022/11/08 23:45:01;;;;;;;;;;;;;;;;;;;;;
2022/11/08 23:47:57;;;;;;;53.28;47.05;;;;;;;4.18;100.00;101836.53;6186267;23;20116;-90
2022/11/08 23:50:31;;;;;;;52.00;46.35;;;;;;;3.97;100.00;101843.69;6175930;23;20028;-88
2022/11/08 23:53:16;;;;;;;55.15;49.20;;;;;;;4.13;100.00;101844.81;6186070;23;20035;-91
2022/11/08 23:56:34;;;;;;;57.80;50.72;;;;;;;4.42;100.00;101833.50;6186332;23;20053;-87
2022/11/08 23:59:18;;;;;;;56.85;49.95;;;;;;;4.47;100.00;101843.59;6009763;23;20095;-88
